Time;durP1;ratioP1;P1;durP2;ratioP2;P2;SDS_P1;SDS_P2;PMS_P1;PMS_P2;Temp;Humidity;BMP_temperature;BMP_pressure;BME280_temperature;BME280_humidity;BME280_pressure;Samples;Min_cycle;Max_cycle;Signal;HPM_P1;HPM_P2
2023/07/14 00:00:35;;;;;;;10.23;8.63;;;14.40;99.90;;;;;;5106341;27;20101;-80
2023/07/14 00:03:02;;;;;;;11.52;9.23;;;14.30;99.90;;;;;;5086442;28;20059;-79
2023/07/14 00:05:33;;;;;;;10.73;9.70;;;14.30;99.90;;;;;;5088003;28;20062;-79
2023/07/14 00:07:59;;;;;;;11.77;9.38;;;14.60;99.90;;;;;;5082427;28;20048;-79
2023/07/14 00:10:30;;;;;;;13.57;11.13;;;14.20;99.90;;;;;;5070771;28;20044;-79
2023/07/14 00:13:03;;;;;;;9.70;8.75;;;14.20;99.90;;;;;;5079718;28;20065;-79
2023/07/14 00:15:35;;;;;;;12.05;9.15;;;14.20;99.90;;;;;;5107706;28;20055;-79
2023/07/14 00:18:20;;;;;;;10.97;8.60;;;14.20;99.90;;;;;;5105459;27;20051;-78
2023/07/14 00:20:46;;;;;;;10.73;9.70;;;14.10;99.90;;;;;;5094797;28;20306;-78
2023/07/14 00:23:13;;;;;;;11.73;10.13;;;14.10;99.90;;;;;;5078146;28;20122;-79
2023/07/14 00:25:40;;;;;;;11.20;9.70;;;14.10;99.90;;;;;;5107901;28;20112;-79
2023/07/14 00:28:15;;;;;;;10.57;9.52;;;14.10;99.90;;;;;;5090874;28;20080;-79
2023/07/14 00:30:41;;;;;;;10.60;9.50;;;14.00;99.90;;;;;;5091556;28;20036;-79
2023/07/14 00:33:16;;;;;;;11.43;10.25;;;14.40;99.90;;;;;;5104876;28;20047;-79
2023/07/14 00:35:42;;;;;;;12.57;10.50;;;14.20;99.90;;;;;;5099081;28;20099;-78
2023/07/14 00:38:09;;;;;;;12.15;9.75;;;14.00;99.90;;;;;;5087652;28;20048;-78
2023/07/14 00:40:40;;;;;;;10.85;9.85;;;14.00;99.90;;;;;;5102888;28;20073;-78
2023/07/14 00:43:17;;;;;;;12.23;10.90;;;14.00;99.90;;;;;;5105138;28;20062;-79
2023/07/14 00:45:45;;;;;;;11.68;10.48;;;14.00;99.90;;;;;;5101891;28;20044;-79
2023/07/14 00:48:15;;;;;;;11.93;10.70;;;14.30;99.90;;;;;;5107974;28;20495;-79
2023/07/14 00:50:46;;;;;;;14.80;11.38;;;14.00;99.90;;;;;;5106746;28;20032;-79
2023/07/14 00:53:18;;;;;;;12.32;11.05;;;14.00;99.90;;;;;;5089883;28;20546;-79
2023/07/14 00:55:48;;;;;;;19.02;12.07;;;14.00;99.90;;;;;;5075911;28;20406;-79
2023/07/14 00:58:23;;;;;;;12.20;10.65;;;14.00;99.90;;;;;;5074584;28;20051;-78
2023/07/14 01:01:01;;;;;;;12.20;9.98;;;13.90;99.90;;;;;;5080055;28;20035;-78
2023/07/14 01:03:27;;;;;;;13.55;11.13;;;13.90;99.90;;;;;;5112805;27;20051;-78
2023/07/14 01:05:53;;;;;;;14.68;11.13;;;13.90;99.90;;;;;;5072187;28;20040;-78
2023/07/14 01:08:20;;;;;;;13.65;11.65;;;13.90;99.90;;;;;;5108349;28;20036;-78
2023/07/14 01:10:46;;;;;;;12.48;11.15;;;14.10;99.90;;;;;;5106959;28;20051;-78
2023/07/14 01:13:12;;;;;;;13.75;11.73;;;14.40;99.90;;;;;;5106571;28;20122;-78
2023/07/14 01:15:40;;;;;;;14.05;10.48;;;13.90;99.90;;;;;;5089768;28;20401;-78
2023/07/14 01:18:07;;;;;;;11.90;10.57;;;13.90;99.90;;;;;;5091683;28;20048;-79
2023/07/14 01:20:37;;;;;;;12.15;10.93;;;13.90;99.90;;;;;;5088412;28;20044;-78
2023/07/14 01:23:25;;;;;;;14.13;11.15;;;13.90;99.90;;;;;;5069643;28;20036;-78
2023/07/14 01:25:53;;;;;;;12.50;10.38;;;13.90;99.90;;;;;;5102989;28;20583;-78
2023/07/14 01:28:20;;;;;;;12.88;10.60;;;13.90;99.90;;;;;;5086538;28;20444;-78
2023/07/14 01:30:48;;;;;;;12.15;10.65;;;13.90;99.90;;;;;;5086019;28;20044;-78
2023/07/14 01:33:17;;;;;;;13.07;11.23;;;13.80;99.90;;;;;;5089983;28;20043;-78
2023/07/14 01:35:54;;;;;;;13.43;10.70;;;13.80;99.90;;;;;;5099635;28;20558;-78
2023/07/14 01:38:22;;;;;;;11.38;10.10;;;13.80;99.90;;;;;;5104197;28;20035;-78
2023/07/14 01:40:47;;;;;;;12.85;11.38;;;13.70;99.90;;;;;;5087031;28;20555;-78
2023/07/14 01:43:13;;;;;;;12.93;10.48;;;13.70;99.90;;;;;;5107936;27;20072;-79
2023/07/14 01:45:55;;;;;;;12.60;10.85;;;13.70;99.90;;;;;;5086420;28;20036;-78
2023/07/14 01:48:29;;;;;;;13.90;10.98;;;13.70;99.90;;;;;;5102659;28;20081;-79
2023/07/14 01:50:58;;;;;;;12.68;11.05;;;13.70;99.90;;;;;;5073374;28;20062;-78
2023/07/14 01:53:31;;;;;;;11.98;10.77;;;13.70;99.90;;;;;;5074937;28;20039;-78
2023/07/14 01:56:02;;;;;;;15.27;11.05;;;13.70;99.90;;;;;;5103245;28;20493;-78
2023/07/14 01:58:59;;;;;;;12.65;11.13;;;13.60;99.90;;;;;;5079225;28;20505;-79
2023/07/14 02:01:26;;;;;;;12.45;11.25;;;13.60;99.90;;;;;;5103187;28;20071;-78
2023/07/14 02:03:54;;;;;;;13.90;12.20;;;13.60;99.90;;;;;;5089514;28;20044;-78
2023/07/14 02:06:20;;;;;;;13.52;11.95;;;13.60;99.90;;;;;;5085225;28;20094;-78
2023/07/14 02:08:46;;;;;;;15.23;11.48;;;13.60;99.90;;;;;;5090734;28;20445;-78
2023/07/14 02:11:17;;;;;;;13.20;11.68;;;13.70;99.90;;;;;;5081309;28;20123;-78
2023/07/14 02:13:44;;;;;;;12.90;11.15;;;13.50;99.90;;;;;;5069101;28;20048;-78
2023/07/14 02:16:15;;;;;;;14.52;11.60;;;14.10;99.90;;;;;;5098905;28;20046;-78
2023/07/14 02:18:42;;;;;;;13.90;11.73;;;13.80;99.90;;;;;;5095447;28;20104;-78
2023/07/14 02:21:10;;;;;;;15.63;11.38;;;13.50;99.90;;;;;;5092791;28;20043;-78
2023/07/14 02:23:38;;;;;;;11.85;10.40;;;13.50;99.90;;;;;;5105399;28;20086;-78
2023/07/14 02:26:12;;;;;;;12.30;9.93;;;13.50;99.90;;;;;;5087687;28;20071;-78
2023/07/14 02:28:38;;;;;;;13.25;11.18;;;13.40;99.90;;;;;;5106042;28;20083;-78
2023/07/14 02:31:23;;;;;;;11.85;10.40;;;13.40;99.90;;;;;;5100562;28;20083;-78
2023/07/14 02:33:50;;;;;;;13.13;10.65;;;13.40;99.90;;;;;;5102882;28;20058;-78
2023/07/14 02:36:39;;;;;;;11.85;10.32;;;13.40;99.90;;;;;;5105317;28;20169;-78
2023/07/14 02:39:06;;;;;;;14.57;10.57;;;13.40;99.90;;;;;;5080812;28;20369;-78
2023/07/14 02:41:38;;;;;;;13.38;10.57;;;13.40;99.90;;;;;;5102172;28;20222;-78
2023/07/14 02:44:07;;;;;;;16.80;10.40;;;13.40;99.90;;;;;;5073425;28;20047;-78
2023/07/14 02:46:38;;;;;;;12.60;10.18;;;13.40;99.90;;;;;;5090373;28;20494;-78
2023/07/14 02:49:04;;;;;;;12.52;10.52;;;13.40;99.90;;;;;;5084520;28;20123;-78
2023/07/14 02:51:30;;;;;;;12.32;10.13;;;13.40;99.90;;;;;;5090347;28;20063;-78
2023/07/14 02:53:56;;;;;;;11.55;10.30;;;13.30;99.90;;;;;;5073055;28;20062;-78
2023/07/14 02:56:22;;;;;;;11.77;9.48;;;13.60;99.90;;;;;;5105659;28;20047;-78
2023/07/14 02:58:49;;;;;;;11.05;9.80;;;13.40;99.90;;;;;;5093684;28;20057;-78
2023/07/14 03:01:17;;;;;;;11.05;9.10;;;13.30;99.90;;;;;;5108713;28;20047;-78
2023/07/14 03:03:44;;;;;;;13.57;10.20;;;13.30;99.90;;;;;;5097657;28;20051;-78
2023/07/14 03:06:12;;;;;;;11.63;9.25;;;13.30;99.90;;;;;;5108896;28;20407;-78
2023/07/14 03:08:38;;;;;;;10.57;9.25;;;13.30;99.90;;;;;;5101862;28;20044;-78
2023/07/14 03:11:04;;;;;;;11.38;9.32;;;13.30;99.90;;;;;;5072272;28;20051;-78
2023/07/14 03:13:30;;;;;;;12.55;9.70;;;13.60;99.90;;;;;;5106823;28;20134;-78
2023/07/14 03:15:57;;;;;;;12.15;9.25;;;13.50;99.90;;;;;;5108276;28;20097;-78
2023/07/14 03:18:22;;;;;;;10.25;9.13;;;13.20;99.90;;;;;;5101940;28;20509;-78
2023/07/14 03:20:48;;;;;;;11.35;8.98;;;13.20;99.90;;;;;;5098641;28;20036;-79
2023/07/14 03:23:14;;;;;;;11.25;8.25;;;13.30;99.90;;;;;;5109293;28;20043;-78
2023/07/14 03:25:40;;;;;;;10.27;9.13;;;13.20;99.90;;;;;;5102159;28;20043;-79
2023/07/14 03:28:06;;;;;;;13.80;9.05;;;13.20;99.90;;;;;;5116064;27;20418;-78
2023/07/14 03:30:38;;;;;;;10.68;9.48;;;13.20;99.90;;;;;;5107422;28;20067;-78
2023/07/14 03:33:04;;;;;;;9.65;8.65;;;13.20;99.90;;;;;;5090442;28;20072;-78
2023/07/14 03:35:29;;;;;;;9.55;8.30;;;13.20;99.90;;;;;;5112605;27;20097;-79
2023/07/14 03:37:55;;;;;;;11.35;8.88;;;13.20;99.90;;;;;;5088951;28;20072;-79
2023/07/14 03:40:21;;;;;;;10.93;8.45;;;13.20;99.90;;;;;;5103472;28;20043;-78
2023/07/14 03:42:46;;;;;;;11.05;8.30;;;13.50;99.90;;;;;;5109687;28;20561;-79
2023/07/14 03:45:12;;;;;;;10.27;8.27;;;13.10;99.90;;;;;;5105285;28;20814;-79
2023/07/14 03:47:39;;;;;;;13.98;9.18;;;13.10;99.90;;;;;;5083028;28;20044;-78
2023/07/14 03:50:06;;;;;;;11.30;8.82;;;13.20;99.90;;;;;;5099964;28;20047;-78
2023/07/14 03:52:31;;;;;;;10.88;8.75;;;13.10;99.90;;;;;;5105271;28;20447;-78
2023/07/14 03:54:57;;;;;;;11.35;9.27;;;13.20;99.90;;;;;;5087699;28;20101;-78
2023/07/14 03:57:22;;;;;;;10.32;8.30;;;13.10;99.90;;;;;;5092896;28;20841;-79
2023/07/14 03:59:48;;;;;;;8.88;7.60;;;13.10;99.90;;;;;;5098588;28;20046;-79
2023/07/14 04:02:14;;;;;;;10.02;7.93;;;13.20;99.90;;;;;;5108976;28;20052;-79
2023/07/14 04:04:40;;;;;;;11.65;8.13;;;13.20;99.90;;;;;;5105923;28;20486;-80
2023/07/14 04:07:07;;;;;;;10.45;7.65;;;13.20;99.90;;;;;;5097855;28;20826;-79
2023/07/14 04:09:32;;;;;;;11.60;8.55;;;13.20;99.90;;;;;;5097851;28;20498;-80
2023/07/14 04:11:58;;;;;;;10.90;8.32;;;13.20;99.90;;;;;;5110093;28;20054;-80
2023/07/14 04:14:24;;;;;;;8.70;7.57;;;13.30;99.90;;;;;;5103582;28;20449;-79
2023/07/14 04:16:50;;;;;;;9.70;8.35;;;13.30;99.90;;;;;;5108018;28;20042;-80
2023/07/14 04:19:15;;;;;;;9.82;7.70;;;13.40;99.90;;;;;;5108512;28;20043;-80
2023/07/14 04:21:41;;;;;;;9.20;8.30;;;13.60;99.90;;;;;;5108217;28;20078;-80
2023/07/14 04:24:06;;;;;;;13.68;8.57;;;13.40;99.90;;;;;;5098329;28;20722;-79
2023/07/14 04:26:32;;;;;;;8.90;7.68;;;13.40;99.90;;;;;;5092161;28;20109;-79
2023/07/14 04:28:58;;;;;;;13.43;8.32;;;13.50;99.90;;;;;;5088956;28;20437;-79
2023/07/14 04:31:24;;;;;;;10.23;8.18;;;13.50;99.90;;;;;;5108902;28;20050;-80
2023/07/14 04:33:51;;;;;;;10.20;7.95;;;13.60;99.90;;;;;;5101705;28;20129;-80
2023/07/14 04:36:17;;;;;;;10.88;8.15;;;14.00;99.90;;;;;;5091685;28;20044;-79
2023/07/14 04:38:58;;;;;;;8.65;7.75;;;13.70;99.90;;;;;;5080222;28;20112;-80
2023/07/14 04:41:24;;;;;;;10.88;8.32;;;13.80;99.90;;;;;;5092439;28;20057;-77
2023/07/14 04:43:49;;;;;;;11.80;8.65;;;13.90;99.90;;;;;;5088689;28;20040;-77
2023/07/14 04:46:15;;;;;;;9.60;8.45;;;14.00;99.90;;;;;;5105308;28;20040;-77
2023/07/14 04:48:41;;;;;;;13.50;8.23;;;14.10;99.90;;;;;;5107300;28;20439;-79
2023/07/14 04:51:06;;;;;;;11.40;8.38;;;14.20;99.90;;;;;;5097568;28;20144;-79
2023/07/14 04:53:32;;;;;;;11.23;8.52;;;14.20;99.90;;;;;;5097373;28;20056;-79
2023/07/14 04:56:00;;;;;;;9.05;8.13;;;14.40;99.90;;;;;;5073013;28;20036;-79
2023/07/14 04:58:26;;;;;;;11.70;8.70;;;14.50;99.90;;;;;;5099548;28;20451;-81
2023/07/14 05:00:52;;;;;;;9.40;8.00;;;14.60;99.90;;;;;;5087869;28;20088;-79
2023/07/14 05:03:18;;;;;;;12.65;8.45;;;14.70;99.90;;;;;;5069866;28;20036;-79
2023/07/14 05:05:44;;;;;;;11.82;8.50;;;14.80;99.90;;;;;;5076677;28;20046;-79
2023/07/14 05:08:10;;;;;;;11.52;8.68;;;14.80;99.90;;;;;;5091889;28;20038;-79
2023/07/14 05:10:38;;;;;;;11.05;8.48;;;14.90;99.90;;;;;;5092981;28;20480;-78
2023/07/14 05:13:04;;;;;;;9.57;8.32;;;15.00;99.90;;;;;;5096368;28;20456;-80
2023/07/14 05:15:30;;;;;;;11.48;9.27;;;15.10;99.90;;;;;;5105477;28;20086;-80
2023/07/14 05:17:56;;;;;;;10.30;9.00;;;15.10;99.90;;;;;;5082956;28;20062;-80
2023/07/14 05:20:22;;;;;;;10.55;9.05;;;15.10;99.90;;;;;;5095112;28;20047;-80
2023/07/14 05:22:51;;;;;;;10.32;8.80;;;15.20;99.90;;;;;;5090718;28;20123;-80
2023/07/14 05:25:17;;;;;;;9.77;8.77;;;15.30;99.90;;;;;;5093499;28;20468;-80
2023/07/14 05:27:44;;;;;;;12.40;10.48;;;15.40;99.90;;;;;;5096362;28;20535;-80
2023/07/14 05:30:14;;;;;;;13.05;10.10;;;15.40;99.90;;;;;;5106276;28;20117;-79
2023/07/14 05:32:40;;;;;;;12.25;10.32;;;15.40;99.90;;;;;;5107271;28;20049;-80
2023/07/14 05:35:06;;;;;;;11.73;10.18;;;15.50;99.90;;;;;;5106336;28;20175;-80
2023/07/14 05:37:32;;;;;;;14.52;10.57;;;15.60;99.90;;;;;;5107451;28;20053;-80
2023/07/14 05:39:57;;;;;;;15.85;11.75;;;15.70;99.90;;;;;;5103898;28;20040;-80
2023/07/14 05:42:23;;;;;;;15.18;11.35;;;15.80;99.90;;;;;;5106708;28;20043;-79
2023/07/14 05:44:49;;;;;;;12.82;11.30;;;16.00;99.90;;;;;;5107534;28;20138;-80
2023/07/14 05:47:14;;;;;;;13.13;11.18;;;16.00;99.90;;;;;;5106858;28;20469;-80
2023/07/14 05:49:40;;;;;;;23.33;11.60;;;16.60;99.90;;;;;;5105018;28;20043;-80
2023/07/14 05:52:09;;;;;;;21.33;12.65;;;16.70;99.90;;;;;;5096689;28;20494;-80
2023/07/14 05:54:35;;;;;;;23.60;12.88;;;16.80;99.90;;;;;;5093033;28;20052;-80
2023/07/14 05:57:01;;;;;;;15.05;10.75;;;16.70;99.90;;;;;;5103097;28;20059;-80
2023/07/14 05:59:27;;;;;;;107.63;22.05;;;16.60;99.90;;;;;;5104714;28;20051;-79
2023/07/14 06:01:52;;;;;;;22.85;12.23;;;16.70;99.90;;;;;;5107286;28;20043;-80
2023/07/14 06:04:18;;;;;;;16.73;11.48;;;17.20;99.90;;;;;;5106359;28;20047;-81
2023/07/14 06:06:43;;;;;;;14.30;11.90;;;17.90;99.90;;;;;;5089373;28;20040;-78
2023/07/14 06:09:11;;;;;;;14.98;12.32;;;18.70;99.90;;;;;;5106624;28;20126;-79
2023/07/14 06:11:37;;;;;;;12.32;11.02;;;19.60;99.90;;;;;;5100702;28;20092;-81
2023/07/14 06:14:03;;;;;;;10.73;9.48;;;20.30;99.90;;;;;;5106259;28;20047;-81
2023/07/14 06:16:28;;;;;;;84.03;19.50;;;21.10;99.90;;;;;;5081167;28;20102;-80
2023/07/14 06:18:54;;;;;;;22.15;11.07;;;21.40;99.90;;;;;;5070535;28;20071;-80
2023/07/14 06:21:20;;;;;;;11.15;9.50;;;22.00;99.90;;;;;;5093401;28;20043;-79
2023/07/14 06:23:48;;;;;;;10.00;9.00;;;22.50;99.90;;;;;;5108037;28;20440;-80
2023/07/14 06:26:14;;;;;;;266.55;42.22;;;22.80;99.90;;;;;;5105002;28;20100;-80
2023/07/14 06:28:41;;;;;;;23.23;9.85;;;22.80;99.90;;;;;;5106022;28;20079;-81
2023/07/14 06:31:07;;;;;;;12.38;9.18;;;22.90;99.90;;;;;;5087446;28;20070;-80
2023/07/14 06:33:33;;;;;;;9.23;7.95;;;23.00;99.90;;;;;;5106268;28;20088;-79
2023/07/14 06:36:00;;;;;;;8.65;7.75;;;23.20;99.90;;;;;;5106158;28;20089;-80
2023/07/14 06:38:26;;;;;;;224.52;36.50;;;23.40;99.90;;;;;;5103460;28;20043;-80
2023/07/14 06:41:10;;;;;;;23.27;9.85;;;23.40;99.90;;;;;;5106060;28;20630;-80
2023/07/14 06:43:36;;;;;;;13.15;7.53;;;22.50;99.90;;;;;;5086062;28;20054;-79
2023/07/14 06:46:02;;;;;;;8.95;7.35;;;21.80;99.90;;;;;;5069131;28;20048;-79
2023/07/14 06:48:28;;;;;;;8.70;6.35;;;21.20;99.90;;;;;;5085424;28;20044;-79
2023/07/14 06:50:54;;;;;;;10.68;6.82;;;21.00;99.90;;;;;;5084506;28;20056;-80
2023/07/14 06:53:20;;;;;;;7.97;6.80;;;20.70;99.90;;;;;;5097439;28;20043;-79
2023/07/14 06:55:46;;;;;;;9.35;6.97;;;20.50;99.90;;;;;;5107919;28;20047;-80
2023/07/14 06:58:12;;;;;;;10.45;7.15;;;20.30;99.90;;;;;;5107717;28;20490;-79
2023/07/14 07:00:38;;;;;;;9.20;7.25;;;20.30;99.90;;;;;;5106744;28;20478;-80
2023/07/14 07:03:05;;;;;;;10.25;7.18;;;20.10;99.90;;;;;;5099359;28;20126;-79
2023/07/14 07:05:38;;;;;;;8.52;6.97;;;20.30;99.90;;;;;;5085262;28;20046;-79
2023/07/14 07:08:04;;;;;;;8.25;7.03;;;20.30;99.90;;;;;;5067844;28;20033;-79
2023/07/14 07:10:30;;;;;;;10.88;7.55;;;20.40;99.90;;;;;;5068135;28;20793;-79
2023/07/14 07:12:56;;;;;;;10.65;7.95;;;20.70;99.90;;;;;;5085371;28;20071;-79
2023/07/14 07:15:21;;;;;;;8.52;7.15;;;20.60;99.90;;;;;;5104856;28;20046;-79
2023/07/14 07:17:47;;;;;;;13.32;7.35;;;20.40;99.90;;;;;;5104687;28;20063;-79
2023/07/14 07:20:13;;;;;;;8.73;7.18;;;20.40;99.90;;;;;;5088196;28;20697;-79
2023/07/14 07:22:40;;;;;;;9.93;6.97;;;20.50;99.90;;;;;;5106207;28;20040;-80
2023/07/14 07:25:07;;;;;;;7.15;6.40;;;20.60;99.90;;;;;;5091873;28;20055;-80
2023/07/14 07:27:34;;;;;;;8.10;6.78;;;20.50;99.90;;;;;;5085626;28;20044;-79
2023/07/14 07:30:00;;;;;;;9.90;6.95;;;20.80;99.90;;;;;;5071562;28;20097;-79
2023/07/14 07:32:27;;;;;;;5.65;5.13;;;20.60;99.90;;;;;;5089692;28;20135;-80
2023/07/14 07:34:53;;;;;;;6.80;5.60;;;20.60;99.90;;;;;;5090166;28;20116;-79
2023/07/14 07:37:19;;;;;;;9.18;5.35;;;20.70;99.90;;;;;;5089031;28;20044;-79
2023/07/14 07:39:45;;;;;;;7.35;5.75;;;20.80;99.90;;;;;;5089413;28;20365;-80
2023/07/14 07:42:11;;;;;;;6.22;5.10;;;20.90;99.90;;;;;;5090210;28;20056;-80
2023/07/14 07:44:37;;;;;;;7.05;5.20;;;21.10;99.90;;;;;;5073422;28;20105;-80
2023/07/14 07:47:02;;;;;;;8.60;5.45;;;21.10;99.90;;;;;;5090801;28;20067;-79
2023/07/14 07:49:29;;;;;;;6.55;5.57;;;21.00;99.90;;;;;;5088278;28;20737;-80
2023/07/14 07:51:54;;;;;;;7.00;5.55;;;21.00;99.90;;;;;;5089070;28;20147;-79
2023/07/14 07:54:21;;;;;;;7.18;5.85;;;21.10;99.90;;;;;;5072102;28;20151;-79
2023/07/14 07:56:46;;;;;;;6.03;5.32;;;21.00;99.90;;;;;;5090354;28;20059;-79
2023/07/14 07:59:15;;;;;;;7.43;5.40;;;21.10;99.90;;;;;;5088937;28;20039;-80
2023/07/14 08:01:43;;;;;;;6.18;5.50;;;21.10;99.90;;;;;;5071590;28;20043;-80
2023/07/14 08:04:09;;;;;;;6.45;5.07;;;21.10;99.90;;;;;;5088542;28;20505;-79
2023/07/14 08:06:36;;;;;;;5.95;4.72;;;21.10;99.90;;;;;;5089406;28;20040;-79
2023/07/14 08:09:04;;;;;;;6.63;4.70;;;21.30;99.90;;;;;;5072043;28;20048;-79
2023/07/14 08:11:30;;;;;;;5.28;4.53;;;21.50;99.90;;;;;;5072011;28;20054;-80
2023/07/14 08:13:58;;;;;;;5.70;3.55;;;21.70;99.90;;;;;;5071628;28;20072;-80
2023/07/14 08:16:25;;;;;;;7.45;3.95;;;21.50;99.90;;;;;;5089750;28;20052;-80
2023/07/14 08:18:50;;;;;;;4.25;3.30;;;21.70;99.90;;;;;;5088461;28;20347;-80
2023/07/14 08:21:17;;;;;;;5.28;3.30;;;21.70;99.90;;;;;;5070880;28;20040;-79
2023/07/14 08:23:42;;;;;;;5.57;3.40;;;21.80;99.90;;;;;;5089914;28;20109;-80
2023/07/14 08:26:08;;;;;;;6.15;3.13;;;21.50;99.90;;;;;;5088054;28;20044;-80
2023/07/14 08:28:34;;;;;;;4.72;2.97;;;21.60;99.90;;;;;;5071479;28;20351;-80
2023/07/14 08:31:02;;;;;;;4.88;3.05;;;21.70;99.90;;;;;;5073814;28;20107;-81
2023/07/14 08:33:28;;;;;;;3.35;3.05;;;21.60;99.90;;;;;;5108514;28;20097;-79
2023/07/14 08:35:55;;;;;;;5.43;2.92;;;22.00;99.10;;;;;;5091074;28;20126;-80
2023/07/14 08:38:22;;;;;;;4.53;3.08;;;22.00;98.40;;;;;;5091355;28;20577;-79
2023/07/14 08:40:56;;;;;;;5.55;2.80;;;21.70;98.20;;;;;;5089313;28;20450;-81
2023/07/14 08:43:25;;;;;;;6.35;3.10;;;21.80;97.70;;;;;;5104949;28;20409;-83
2023/07/14 08:46:00;;;;;;;3.88;2.53;;;21.80;97.50;;;;;;5090183;28;20055;-85
2023/07/14 08:48:37;;;;;;;4.28;2.72;;;21.90;97.20;;;;;;5104537;28;20040;-83
2023/07/14 08:51:44;;;;;;;3.45;2.50;;;22.00;97.00;;;;;;5085221;28;20186;-83
2023/07/14 08:54:16;;;;;;;6.15;2.72;;;22.00;95.70;;;;;;5073276;28;20810;-83
2023/07/14 08:56:43;;;;;;;3.38;2.55;;;22.10;97.60;;;;;;5095875;28;20052;-82
2023/07/14 08:59:17;;;;;;;4.85;3.30;;;21.70;96.80;;;;;;5087652;28;20044;-82
2023/07/14 09:01:52;;;;;;;9.52;3.55;;;21.80;97.40;;;;;;5087856;28;20079;-82
2023/07/14 09:04:27;;;;;;;3.63;2.60;;;22.00;97.90;;;;;;5088714;28;20542;-83
2023/07/14 09:06:53;;;;;;;4.93;2.75;;;21.90;96.60;;;;;;5088905;28;20089;-82
2023/07/14 09:09:33;;;;;;;3.92;2.65;;;22.00;97.50;;;;;;5107063;28;20496;-84
2023/07/14 09:12:03;;;;;;;4.03;2.45;;;22.20;95.80;;;;;;5097314;28;20131;-83
2023/07/14 09:14:53;;;;;;;3.08;2.40;;;22.40;96.10;;;;;;5070161;28;20685;-81
2023/07/14 09:17:43;;;;;;;9.45;3.25;;;22.70;94.80;;;;;;5086876;28;20130;-83
2023/07/14 09:20:34;;;;;;;6.85;2.75;;;22.70;93.50;;;;;;5069406;28;20044;-82
2023/07/14 09:23:34;;;;;;;8.88;3.20;;;22.50;93.90;;;;;;5087330;28;20052;-83
2023/07/14 09:26:13;;;;;;;5.95;3.00;;;22.40;94.90;;;;;;5091140;28;20503;-82
2023/07/14 09:28:46;;;;;;;5.55;3.38;;;22.30;93.30;;;;;;5099246;28;20097;-83
2023/07/14 09:31:37;;;;;;;3.63;2.55;;;22.60;94.60;;;;;;5071713;28;20044;-82
2023/07/14 09:34:24;;;;;;;4.53;2.90;;;22.40;94.40;;;;;;5105408;28;20051;-85
2023/07/14 09:36:52;;;;;;;4.80;3.20;;;22.60;94.60;;;;;;5077085;28;20094;-81
2023/07/14 09:39:32;;;;;;;4.53;3.10;;;22.80;93.70;;;;;;5092204;28;20043;-80
2023/07/14 09:42:00;;;;;;;5.47;3.05;;;22.90;93.10;;;;;;5095726;28;20048;-81
2023/07/14 09:44:26;;;;;;;4.43;3.13;;;23.20;93.60;;;;;;5086707;28;20055;-80
2023/07/14 09:46:53;;;;;;;3.00;2.75;;;23.30;92.70;;;;;;5103681;28;20052;-79
2023/07/14 09:49:32;;;;;;;3.72;2.88;;;23.50;92.20;;;;;;5072531;28;20444;-81
2023/07/14 09:52:20;;;;;;;17.95;4.35;;;23.60;90.10;;;;;;5107556;28;20051;-80
2023/07/14 09:54:51;;;;;;;11.13;3.33;;;23.80;87.50;;;;;;5089703;28;20486;-81
2023/07/14 09:57:19;;;;;;;82.80;11.70;;;23.80;90.40;;;;;;5089393;28;20047;-80
2023/07/14 09:59:55;;;;;;;22.42;5.40;;;23.80;90.60;;;;;;5103605;28;20039;-81
2023/07/14 10:02:29;;;;;;;8.95;3.42;;;23.70;90.20;;;;;;5068053;28;20192;-81
2023/07/14 10:04:59;;;;;;;4.93;2.85;;;23.50;91.00;;;;;;5085524;28;20050;-80
2023/07/14 10:07:33;;;;;;;4.72;2.70;;;23.40;91.30;;;;;;5068241;28;20048;-81
2023/07/14 10:10:10;;;;;;;6.38;2.58;;;23.40;90.80;;;;;;5086272;28;20051;-80
2023/07/14 10:12:47;;;;;;;7.22;3.20;;;23.10;90.20;;;;;;5087108;28;20047;-84
2023/07/14 10:15:32;;;;;;;3.65;2.45;;;23.00;90.30;;;;;;5091307;28;20108;-84
2023/07/14 10:18:01;;;;;;;3.55;2.35;;;23.00;88.30;;;;;;5092380;28;20043;-82
2023/07/14 10:20:27;;;;;;;4.30;2.72;;;23.00;89.90;;;;;;5083545;28;20048;-82
2023/07/14 10:22:57;;;;;;;4.85;3.03;;;22.80;88.90;;;;;;5103263;28;20171;-82
2023/07/14 10:25:23;;;;;;;4.03;2.90;;;22.70;89.00;;;;;;5077518;28;20465;-82
2023/07/14 10:28:11;;;;;;;5.07;3.30;;;22.80;89.30;;;;;;5102837;28;20067;-82
2023/07/14 10:30:53;;;;;;;3.30;3.00;;;22.60;87.90;;;;;;5099266;28;20430;-81
2023/07/14 10:33:25;;;;;;;3.47;3.08;;;22.80;90.30;;;;;;5100469;28;20044;-82
2023/07/14 10:36:06;;;;;;;4.13;2.95;;;23.10;90.50;;;;;;5100066;28;20066;-83
2023/07/14 10:38:48;;;;;;;4.27;2.77;;;23.20;89.50;;;;;;5090015;28;20109;-83
2023/07/14 10:41:15;;;;;;;3.50;2.92;;;23.50;88.80;;;;;;5087433;28;20062;-81
2023/07/14 10:44:01;;;;;;;3.65;3.10;;;23.70;87.50;;;;;;5094958;28;20182;-82
2023/07/14 10:46:39;;;;;;;3.97;2.97;;;23.80;86.60;;;;;;5106239;28;20039;-83
2023/07/14 10:49:23;;;;;;;3.20;2.60;;;23.90;87.00;;;;;;5097513;28;20052;-83
2023/07/14 10:51:54;;;;;;;4.80;2.97;;;24.10;84.70;;;;;;5068411;28;20072;-83
2023/07/14 10:54:35;;;;;;;3.80;2.38;;;24.20;83.20;;;;;;5085636;28;20135;-82
2023/07/14 10:57:05;;;;;;;4.30;2.83;;;23.90;82.30;;;;;;5086050;28;20067;-82
2023/07/14 10:59:41;;;;;;;4.95;3.00;;;23.80;83.40;;;;;;5086985;28;20581;-82
2023/07/14 11:02:21;;;;;;;3.20;2.53;;;23.80;82.90;;;;;;5086168;28;20091;-82
2023/07/14 11:04:53;;;;;;;3.50;2.83;;;23.40;82.40;;;;;;5088595;28;20052;-82
2023/07/14 11:07:31;;;;;;;4.30;2.58;;;23.30;82.90;;;;;;5089892;28;20048;-83
2023/07/14 11:09:58;;;;;;;3.15;2.30;;;23.30;84.80;;;;;;5102985;28;20058;-83
2023/07/14 11:12:55;;;;;;;4.47;2.30;;;23.50;86.00;;;;;;5109832;28;20044;-83
2023/07/14 11:15:33;;;;;;;2.97;2.30;;;23.70;82.10;;;;;;5107743;28;20512;-84
2023/07/14 11:18:26;;;;;;;2.83;2.20;;;23.70;81.20;;;;;;5072468;28;20452;-82
2023/07/14 11:21:14;;;;;;;2.92;2.58;;;23.70;76.90;;;;;;5102614;28;20384;-83
2023/07/14 11:24:12;;;;;;;5.05;2.40;;;23.90;80.90;;;;;;5109362;28;20399;-83
2023/07/14 11:27:04;;;;;;;3.15;2.13;;;23.80;78.90;;;;;;5109986;28;20051;-84
2023/07/14 11:29:38;;;;;;;3.22;2.17;;;23.60;78.70;;;;;;5098158;28;20047;-81
2023/07/14 11:32:04;;;;;;;4.07;2.20;;;23.40;80.50;;;;;;5119044;27;20079;-82
2023/07/14 11:34:39;;;;;;;3.63;2.42;;;23.30;81.70;;;;;;5071417;28;20083;-81
2023/07/14 11:37:17;;;;;;;3.92;2.33;;;23.00;81.20;;;;;;5089109;28;20044;-83
2023/07/14 11:39:52;;;;;;;2.78;2.45;;;23.00;82.60;;;;;;5089480;28;20044;-80
2023/07/14 11:42:31;;;;;;;2.83;2.17;;;23.10;82.70;;;;;;5091417;28;20851;-82
2023/07/14 11:44:59;;;;;;;2.83;2.50;;;23.00;83.20;;;;;;5089430;28;20056;-80
2023/07/14 11:47:35;;;;;;;4.22;2.70;;;23.10;82.80;;;;;;5089800;28;20047;-80
2023/07/14 11:50:08;;;;;;;45.10;8.15;;;23.10;83.50;;;;;;5071551;28;20036;-79
2023/07/14 11:52:42;;;;;;;13.27;3.55;;;23.00;82.90;;;;;;5072226;28;20044;-82
2023/07/14 11:55:22;;;;;;;6.82;3.10;;;23.30;84.90;;;;;;5088744;28;20052;-81
2023/07/14 11:58:05;;;;;;;6.35;2.75;;;23.30;84.60;;;;;;5106049;28;20052;-82
2023/07/14 12:00:44;;;;;;;4.60;2.72;;;23.30;85.70;;;;;;5109541;28;20055;-82
2023/07/14 12:03:32;;;;;;;4.03;2.40;;;23.30;85.50;;;;;;5108117;28;20413;-82
2023/07/14 12:06:23;;;;;;;4.47;2.78;;;23.30;85.70;;;;;;5089316;28;20047;-82
2023/07/14 12:09:04;;;;;;;4.50;2.60;;;23.40;86.60;;;;;;5091427;28;20127;-82
2023/07/14 12:11:49;;;;;;;4.03;2.60;;;23.20;86.40;;;;;;5089235;28;20114;-81
2023/07/14 12:14:45;;;;;;;5.22;2.53;;;23.10;88.00;;;;;;5106539;28;20371;-81
2023/07/14 12:17:45;;;;;;;4.15;2.60;;;23.10;88.70;;;;;;5108113;28;20042;-80
2023/07/14 12:20:11;;;;;;;3.83;2.53;;;23.10;86.50;;;;;;5109893;28;20047;-83
2023/07/14 12:22:36;;;;;;;3.25;2.80;;;23.20;86.10;;;;;;5091747;28;20044;-84
2023/07/14 12:25:10;;;;;;;3.60;2.75;;;23.30;85.30;;;;;;5088429;28;20106;-82
2023/07/14 12:27:37;;;;;;;4.00;2.55;;;23.40;85.50;;;;;;5101795;28;20059;-83
2023/07/14 12:30:22;;;;;;;3.95;2.85;;;23.60;85.90;;;;;;5108710;28;20071;-82
2023/07/14 12:32:50;;;;;;;4.40;2.90;;;23.60;84.80;;;;;;5092709;28;20071;-84
2023/07/14 12:35:18;;;;;;;8.90;3.10;;;23.90;84.90;;;;;;5086833;28;20146;-83
2023/07/14 12:37:44;;;;;;;4.32;2.72;;;23.70;84.50;;;;;;5077457;28;20039;-82
2023/07/14 12:40:21;;;;;;;9.43;3.33;;;23.80;84.00;;;;;;5096837;28;20052;-82
2023/07/14 12:42:48;;;;;;;7.05;3.30;;;24.00;84.10;;;;;;5087347;28;20051;-82
2023/07/14 12:45:17;;;;;;;3.60;2.50;;;24.00;82.70;;;;;;5104483;28;20114;-82
2023/07/14 12:47:46;;;;;;;3.38;2.70;;;23.80;83.50;;;;;;5075412;28;20057;-83
2023/07/14 12:50:26;;;;;;;4.32;2.88;;;23.90;84.40;;;;;;5095291;28;20529;-83
2023/07/14 12:52:52;;;;;;;4.53;3.20;;;23.80;85.50;;;;;;5097899;28;20056;-82
2023/07/14 12:55:20;;;;;;;11.15;3.75;;;23.90;85.60;;;;;;5107972;28;20063;-81